sensor_id;sensor_type;location;lat;lon;timestamp;pressure;altitude;pressure_sealevel;temperature;humidity
38852;BME280;24605;50.092;9.182;2023-02-28T00:02:23;98907.50;;;-3.01;98.36
38852;BME280;24605;50.092;9.182;2023-02-28T00:04:49;98906.53;;;-2.99;99.18
38852;BME280;24605;50.092;9.182;2023-02-28T00:07:18;98898.00;;;-2.99;99.14
38852;BME280;24605;50.092;9.182;2023-02-28T00:09:44;98902.97;;;-2.94;100.00
38852;BME280;24605;50.092;9.182;2023-02-28T00:12:12;98899.69;;;-2.98;100.00
38852;BME280;24605;50.092;9.182;2023-02-28T00:14:40;98899.16;;;-3.06;100.00
38852;BME280;24605;50.092;9.182;2023-02-28T00:17:06;98900.81;;;-3.05;100.00
38852;BME280;24605;50.092;9.182;2023-02-28T00:19:33;98897.41;;;-3.06;100.00
38852;BME280;24605;50.092;9.182;2023-02-28T00:21:59;98902.53;;;-3.06;100.00
38852;BME280;24605;50.092;9.182;2023-02-28T00:24:26;98901.56;;;-3.03;100.00
38852;BME280;24605;50.092;9.182;2023-02-28T00:26:53;98896.09;;;-3.16;100.00
38852;BME280;24605;50.092;9.182;2023-02-28T00:29:19;98894.41;;;-3.17;100.00
38852;BME280;24605;50.092;9.182;2023-02-28T00:31:47;98898.78;;;-3.19;100.00
38852;BME280;24605;50.092;9.182;2023-02-28T00:34:14;98916.75;;;-3.19;100.00
38852;BME280;24605;50.092;9.182;2023-02-28T00:36:40;98901.31;;;-3.41;100.00
38852;BME280;24605;50.092;9.182;2023-02-28T00:39:10;98904.84;;;-3.44;100.00
38852;BME280;24605;50.092;9.182;2023-02-28T00:41:37;98902.22;;;-3.42;100.00
38852;BME280;24605;50.092;9.182;2023-02-28T00:44:04;98903.00;;;-3.40;100.00
38852;BME280;24605;50.092;9.182;2023-02-28T00:46:30;98907.28;;;-3.41;100.00
38852;BME280;24605;50.092;9.182;2023-02-28T00:48:58;98889.66;;;-3.50;100.00
38852;BME280;24605;50.092;9.182;2023-02-28T00:51:25;98901.25;;;-3.40;100.00
38852;BME280;24605;50.092;9.182;2023-02-28T00:53:51;98908.22;;;-3.43;100.00
38852;BME280;24605;50.092;9.182;2023-02-28T00:56:18;98910.53;;;-3.36;100.00
38852;BME280;24605;50.092;9.182;2023-02-28T00:58:44;98898.97;;;-3.48;100.00
38852;BME280;24605;50.092;9.182;2023-02-28T01:01:11;98903.75;;;-3.38;100.00
38852;BME280;24605;50.092;9.182;2023-02-28T01:03:37;98903.00;;;-3.40;100.00
38852;BME280;24605;50.092;9.182;2023-02-28T01:06:06;98887.56;;;-3.63;100.00
38852;BME280;24605;50.092;9.182;2023-02-28T01:08:32;98887.41;;;-3.58;100.00
38852;BME280;24605;50.092;9.182;2023-02-28T01:11:07;98904.09;;;-3.48;100.00
38852;BME280;24605;50.092;9.182;2023-02-28T01:13:33;98898.03;;;-3.45;100.00
38852;BME280;24605;50.092;9.182;2023-02-28T01:16:00;98903.44;;;-3.53;100.00
38852;BME280;24605;50.092;9.182;2023-02-28T01:18:26;98875.25;;;-3.76;100.00
38852;BME280;24605;50.092;9.182;2023-02-28T01:20:53;98902.44;;;-3.49;100.00
38852;BME280;24605;50.092;9.182;2023-02-28T01:23:22;98890.84;;;-3.59;100.00
38852;BME280;24605;50.092;9.182;2023-02-28T01:25:48;98884.31;;;-3.68;100.00
38852;BME280;24605;50.092;9.182;2023-02-28T01:28:15;98889.75;;;-3.52;100.00
38852;BME280;24605;50.092;9.182;2023-02-28T01:30:42;98901.69;;;-3.52;100.00
38852;BME280;24605;50.092;9.182;2023-02-28T01:33:08;98899.81;;;-3.47;100.00
38852;BME280;24605;50.092;9.182;2023-02-28T01:35:35;98885.31;;;-3.48;100.00
38852;BME280;24605;50.092;9.182;2023-02-28T01:38:02;98891.34;;;-3.49;100.00
38852;BME280;24605;50.092;9.182;2023-02-28T01:40:31;98891.91;;;-3.65;100.00
38852;BME280;24605;50.092;9.182;2023-02-28T01:42:57;98880.31;;;-3.75;100.00
38852;BME280;24605;50.092;9.182;2023-02-28T01:45:26;98882.00;;;-3.74;100.00
38852;BME280;24605;50.092;9.182;2023-02-28T01:47:56;98891.34;;;-3.73;100.00
38852;BME280;24605;50.092;9.182;2023-02-28T01:50:28;98885.44;;;-3.75;100.00
38852;BME280;24605;50.092;9.182;2023-02-28T01:52:58;98885.00;;;-3.86;100.00
38852;BME280;24605;50.092;9.182;2023-02-28T01:55:27;98886.00;;;-3.90;100.00
38852;BME280;24605;50.092;9.182;2023-02-28T01:57:58;98879.75;;;-3.83;100.00
38852;BME280;24605;50.092;9.182;2023-02-28T02:00:28;98871.09;;;-3.79;100.00
38852;BME280;24605;50.092;9.182;2023-02-28T02:02:57;98831.19;;;-4.10;100.00
38852;BME280;24605;50.092;9.182;2023-02-28T02:05:26;98882.78;;;-3.72;100.00
38852;BME280;24605;50.092;9.182;2023-02-28T02:07:56;98875.97;;;-3.73;100.00
38852;BME280;24605;50.092;9.182;2023-02-28T02:10:27;98867.06;;;-3.86;100.00
38852;BME280;24605;50.092;9.182;2023-02-28T02:13:23;98869.28;;;-3.77;100.00
38852;BME280;24605;50.092;9.182;2023-02-28T02:15:58;98869.41;;;-3.80;100.00
38852;BME280;24605;50.092;9.182;2023-02-28T02:18:32;98862.63;;;-3.81;100.00
38852;BME280;24605;50.092;9.182;2023-02-28T02:21:40;98829.88;;;-3.97;100.00
38852;BME280;24605;50.092;9.182;2023-02-28T02:27:22;98833.34;;;-3.98;100.00
38852;BME280;24605;50.092;9.182;2023-02-28T02:30:21;98854.53;;;-3.94;100.00
38852;BME280;24605;50.092;9.182;2023-02-28T02:33:29;98859.44;;;-3.88;100.00
38852;BME280;24605;50.092;9.182;2023-02-28T02:36:06;98862.25;;;-3.96;100.00
38852;BME280;24605;50.092;9.182;2023-02-28T02:38:42;98861.44;;;-3.96;100.00
38852;BME280;24605;50.092;9.182;2023-02-28T02:41:15;98864.00;;;-3.96;100.00
38852;BME280;24605;50.092;9.182;2023-02-28T02:43:46;98863.94;;;-3.95;100.00
38852;BME280;24605;50.092;9.182;2023-02-28T02:46:17;98856.94;;;-3.89;100.00
38852;BME280;24605;50.092;9.182;2023-02-28T02:48:46;98870.25;;;-4.03;100.00
38852;BME280;24605;50.092;9.182;2023-02-28T02:51:16;98860.03;;;-4.05;100.00
38852;BME280;24605;50.092;9.182;2023-02-28T02:53:46;98857.38;;;-4.02;100.00
38852;BME280;24605;50.092;9.182;2023-02-28T02:56:17;98783.97;;;-4.50;100.00
38852;BME280;24605;50.092;9.182;2023-02-28T02:58:47;98849.34;;;-4.16;100.00
38852;BME280;24605;50.092;9.182;2023-02-28T03:01:18;98839.38;;;-4.24;100.00
38852;BME280;24605;50.092;9.182;2023-02-28T03:03:55;98823.09;;;-4.47;100.00
38852;BME280;24605;50.092;9.182;2023-02-28T03:06:24;98833.84;;;-4.37;100.00
38852;BME280;24605;50.092;9.182;2023-02-28T03:08:50;98861.25;;;-4.15;100.00
38852;BME280;24605;50.092;9.182;2023-02-28T03:11:17;98868.00;;;-4.13;100.00
38852;BME280;24605;50.092;9.182;2023-02-28T03:14:01;98857.97;;;-4.19;100.00
38852;BME280;24605;50.092;9.182;2023-02-28T03:16:38;98861.13;;;-4.12;100.00
38852;BME280;24605;50.092;9.182;2023-02-28T03:19:25;98860.03;;;-4.05;100.00
38852;BME280;24605;50.092;9.182;2023-02-28T03:22:04;98855.81;;;-4.06;100.00
38852;BME280;24605;50.092;9.182;2023-02-28T03:24:39;98855.75;;;-4.04;100.00
38852;BME280;24605;50.092;9.182;2023-02-28T03:27:11;98854.91;;;-4.05;100.00
38852;BME280;24605;50.092;9.182;2023-02-28T03:29:44;98836.53;;;-4.16;100.00
38852;BME280;24605;50.092;9.182;2023-02-28T03:32:17;98855.66;;;-4.01;100.00
38852;BME280;24605;50.092;9.182;2023-02-28T03:34:50;98856.94;;;-3.89;100.00
38852;BME280;24605;50.092;9.182;2023-02-28T03:37:24;98857.59;;;-3.84;100.00
38852;BME280;24605;50.092;9.182;2023-02-28T03:39:56;98857.44;;;-3.80;100.00
38852;BME280;24605;50.092;9.182;2023-02-28T03:42:27;98861.50;;;-3.74;100.00
38852;BME280;24605;50.092;9.182;2023-02-28T03:44:57;98848.06;;;-3.81;100.00
38852;BME280;24605;50.092;9.182;2023-02-28T03:47:28;98811.50;;;-4.08;100.00
38852;BME280;24605;50.092;9.182;2023-02-28T03:49:58;98853.91;;;-3.77;100.00
38852;BME280;24605;50.092;9.182;2023-02-28T03:52:32;98847.28;;;-3.83;100.00
38852;BME280;24605;50.092;9.182;2023-02-28T03:55:03;98858.88;;;-3.72;100.00
38852;BME280;24605;50.092;9.182;2023-02-28T03:57:37;98853.09;;;-3.78;100.00
38852;BME280;24605;50.092;9.182;2023-02-28T04:00:09;98853.97;;;-3.79;100.00
38852;BME280;24605;50.092;9.182;2023-02-28T04:02:37;98858.16;;;-3.76;100.00
38852;BME280;24605;50.092;9.182;2023-02-28T04:05:05;98858.44;;;-3.84;100.00
38852;BME280;24605;50.092;9.182;2023-02-28T04:07:33;98784.72;;;-4.23;100.00
38852;BME280;24605;50.092;9.182;2023-02-28T04:10:00;98856.03;;;-3.65;100.00
38852;BME280;24605;50.092;9.182;2023-02-28T04:12:26;98860.03;;;-3.57;100.00
38852;BME280;24605;50.092;9.182;2023-02-28T04:14:53;98863.72;;;-3.65;100.00
38852;BME280;24605;50.092;9.182;2023-02-28T04:17:19;98857.03;;;-3.69;100.00
38852;BME280;24605;50.092;9.182;2023-02-28T04:19:46;98861.78;;;-3.58;100.00
38852;BME280;24605;50.092;9.182;2023-02-28T04:22:12;98867.38;;;-3.48;100.00
38852;BME280;24605;50.092;9.182;2023-02-28T04:24:41;98861.44;;;-3.49;100.00
38852;BME280;24605;50.092;9.182;2023-02-28T04:27:08;98865.59;;;-3.46;100.00
38852;BME280;24605;50.092;9.182;2023-02-28T04:29:35;98857.84;;;-3.44;100.00
38852;BME280;24605;50.092;9.182;2023-02-28T04:32:02;98851.56;;;-3.59;100.00
38852;BME280;24605;50.092;9.182;2023-02-28T04:34:30;98856.59;;;-3.56;100.00
38852;BME280;24605;50.092;9.182;2023-02-28T04:36:57;98857.47;;;-3.57;100.00
38852;BME280;24605;50.092;9.182;2023-02-28T04:39:25;98860.16;;;-3.60;100.00
38852;BME280;24605;50.092;9.182;2023-02-28T04:41:54;98856.81;;;-3.63;100.00
38852;BME280;24605;50.092;9.182;2023-02-28T04:44:20;98859.50;;;-3.66;100.00
38852;BME280;24605;50.092;9.182;2023-02-28T04:46:48;98858.09;;;-3.74;100.00
38852;BME280;24605;50.092;9.182;2023-02-28T04:49:15;98865.97;;;-3.79;100.00
38852;BME280;24605;50.092;9.182;2023-02-28T04:51:42;98856.47;;;-3.77;100.00
38852;BME280;24605;50.092;9.182;2023-02-28T04:54:08;98859.91;;;-3.76;100.00
38852;BME280;24605;50.092;9.182;2023-02-28T04:56:35;98853.16;;;-3.79;100.00
38852;BME280;24605;50.092;9.182;2023-02-28T04:59:02;98853.44;;;-3.87;100.00
38852;BME280;24605;50.092;9.182;2023-02-28T05:01:31;98858.56;;;-3.87;100.00
38852;BME280;24605;50.092;9.182;2023-02-28T05:04:00;98859.34;;;-3.85;100.00
38852;BME280;24605;50.092;9.182;2023-02-28T05:06:29;98830.97;;;-4.04;100.00
38852;BME280;24605;50.092;9.182;2023-02-28T05:08:56;98861.28;;;-3.91;100.00
38852;BME280;24605;50.092;9.182;2023-02-28T05:11:25;98854.81;;;-4.02;100.00
38852;BME280;24605;50.092;9.182;2023-02-28T05:13:54;98858.88;;;-3.96;100.00
38852;BME280;24605;50.092;9.182;2023-02-28T05:16:22;98849.75;;;-4.03;100.00
38852;BME280;24605;50.092;9.182;2023-02-28T05:18:49;98862.25;;;-3.96;99.95
38852;BME280;24605;50.092;9.182;2023-02-28T05:21:24;98845.56;;;-4.06;100.00
38852;BME280;24605;50.092;9.182;2023-02-28T05:23:51;98863.13;;;-3.95;100.00
38852;BME280;24605;50.092;9.182;2023-02-28T05:26:17;98864.94;;;-3.99;100.00
38852;BME280;24605;50.092;9.182;2023-02-28T05:28:44;98860.25;;;-4.11;100.00
38852;BME280;24605;50.092;9.182;2023-02-28T05:31:11;98862.19;;;-4.18;100.00
38852;BME280;24605;50.092;9.182;2023-02-28T05:33:39;98858.88;;;-4.20;100.00
38852;BME280;24605;50.092;9.182;2023-02-28T05:36:06;98867.88;;;-4.10;100.00
38852;BME280;24605;50.092;9.182;2023-02-28T05:38:33;98866.22;;;-4.11;100.00
38852;BME280;24605;50.092;9.182;2023-02-28T05:41:04;98865.13;;;-4.03;99.40
38852;BME280;24605;50.092;9.182;2023-02-28T05:43:30;98873.59;;;-4.01;98.56
38852;BME280;24605;50.092;9.182;2023-02-28T05:45:57;98875.13;;;-3.97;98.32
38852;BME280;24605;50.092;9.182;2023-02-28T05:48:23;98877.53;;;-3.92;97.44
38852;BME280;24605;50.092;9.182;2023-02-28T05:50:52;98869.28;;;-4.01;97.67
38852;BME280;24605;50.092;9.182;2023-02-28T05:53:18;98866.06;;;-4.06;97.25
38852;BME280;24605;50.092;9.182;2023-02-28T05:55:45;98878.34;;;-3.92;96.50
38852;BME280;24605;50.092;9.182;2023-02-28T05:58:11;98877.53;;;-3.92;95.90
38852;BME280;24605;50.092;9.182;2023-02-28T06:00:38;98873.19;;;-3.90;95.42
38852;BME280;24605;50.092;9.182;2023-02-28T06:03:04;98875.84;;;-3.94;95.10
38852;BME280;24605;50.092;9.182;2023-02-28T06:05:31;98886.09;;;-3.94;95.59
38852;BME280;24605;50.092;9.182;2023-02-28T06:07:59;98882.16;;;-4.02;95.35
38852;BME280;24605;50.092;9.182;2023-02-28T06:10:26;98882.31;;;-4.07;95.91
38852;BME280;24605;50.092;9.182;2023-02-28T06:12:52;98887.16;;;-3.99;96.21
38852;BME280;24605;50.092;9.182;2023-02-28T06:15:19;98883.81;;;-4.01;95.82
38852;BME280;24605;50.092;9.182;2023-02-28T06:17:46;98892.34;;;-4.01;95.64
38852;BME280;24605;50.092;9.182;2023-02-28T06:20:12;98887.69;;;-4.15;96.09
38852;BME280;24605;50.092;9.182;2023-02-28T06:22:39;98895.16;;;-4.09;96.84
38852;BME280;24605;50.092;9.182;2023-02-28T06:25:08;98895.16;;;-4.09;96.67
38852;BME280;24605;50.092;9.182;2023-02-28T06:27:35;98881.59;;;-4.36;97.62
38852;BME280;24605;50.092;9.182;2023-02-28T06:30:02;98897.28;;;-4.21;97.69
38852;BME280;24605;50.092;9.182;2023-02-28T06:32:28;98910.22;;;-4.25;98.05
38852;BME280;24605;50.092;9.182;2023-02-28T06:34:55;98915.28;;;-4.23;98.50
38852;BME280;24605;50.092;9.182;2023-02-28T06:37:23;98909.06;;;-4.16;98.42
38852;BME280;24605;50.092;9.182;2023-02-28T06:39:51;98912.56;;;-4.18;98.39
38852;BME280;24605;50.092;9.182;2023-02-28T06:42:19;98898.59;;;-4.35;99.00
38852;BME280;24605;50.092;9.182;2023-02-28T06:44:47;98908.16;;;-4.15;99.00
38852;BME280;24605;50.092;9.182;2023-02-28T06:47:13;98915.59;;;-4.07;97.49
38852;BME280;24605;50.092;9.182;2023-02-28T06:49:40;98912.88;;;-4.02;97.45
38852;BME280;24605;50.092;9.182;2023-02-28T06:52:06;98905.03;;;-3.98;97.04
38852;BME280;24605;50.092;9.182;2023-02-28T06:54:33;98909.31;;;-3.98;96.97
38852;BME280;24605;50.092;9.182;2023-02-28T06:57:00;98920.69;;;-3.82;95.83
38852;BME280;24605;50.092;9.182;2023-02-28T06:59:28;98924.88;;;-3.79;95.08
38852;BME280;24605;50.092;9.182;2023-02-28T07:01:54;98921.41;;;-3.78;94.25
38852;BME280;24605;50.092;9.182;2023-02-28T07:04:22;98928.00;;;-3.71;94.69
38852;BME280;24605;50.092;9.182;2023-02-28T07:06:49;98921.16;;;-3.70;94.50
38852;BME280;24605;50.092;9.182;2023-02-28T07:09:15;98926.09;;;-3.66;94.05
38852;BME280;24605;50.092;9.182;2023-02-28T07:11:42;98932.50;;;-3.54;93.80
38852;BME280;24605;50.092;9.182;2023-02-28T07:14:09;98928.56;;;-3.39;93.20
38852;BME280;24605;50.092;9.182;2023-02-28T07:16:37;98929.56;;;-3.43;92.83
38852;BME280;24605;50.092;9.182;2023-02-28T07:19:03;98919.47;;;-3.48;92.99
38852;BME280;24605;50.092;9.182;2023-02-28T07:21:30;98928.31;;;-3.33;91.69
38852;BME280;24605;50.092;9.182;2023-02-28T07:23:56;98933.13;;;-3.23;90.30
38852;BME280;24605;50.092;9.182;2023-02-28T07:26:23;98930.44;;;-3.20;89.70
38852;BME280;24605;50.092;9.182;2023-02-28T07:28:49;98927.75;;;-3.17;89.25
38852;BME280;24605;50.092;9.182;2023-02-28T07:31:16;98928.34;;;-3.10;88.76
38852;BME280;24605;50.092;9.182;2023-02-28T07:33:45;98923.03;;;-3.04;87.64
38852;BME280;24605;50.092;9.182;2023-02-28T07:36:13;98928.50;;;-2.91;86.71
38852;BME280;24605;50.092;9.182;2023-02-28T07:38:41;98924.72;;;-2.83;86.54
38852;BME280;24605;50.092;9.182;2023-02-28T07:41:07;98922.59;;;-2.71;86.23
38852;BME280;24605;50.092;9.182;2023-02-28T07:43:34;98923.38;;;-2.69;84.91
38852;BME280;24605;50.092;9.182;2023-02-28T07:46:02;98931.41;;;-2.56;84.85
38852;BME280;24605;50.092;9.182;2023-02-28T07:48:28;98928.06;;;-2.58;84.62
38852;BME280;24605;50.092;9.182;2023-02-28T07:50:56;98929.91;;;-2.40;83.59
38852;BME280;24605;50.092;9.182;2023-02-28T07:53:23;98923.88;;;-2.39;82.03
38852;BME280;24605;50.092;9.182;2023-02-28T07:55:50;98925.78;;;-2.23;81.77
38852;BME280;24605;50.092;9.182;2023-02-28T07:58:16;98925.78;;;-2.23;82.55
38852;BME280;24605;50.092;9.182;2023-02-28T08:00:43;98933.03;;;-2.12;80.54
38852;BME280;24605;50.092;9.182;2023-02-28T08:03:11;98934.59;;;-2.08;80.74
38852;BME280;24605;50.092;9.182;2023-02-28T08:05:38;98940.88;;;-1.95;79.50
38852;BME280;24605;50.092;9.182;2023-02-28T08:08:06;98941.09;;;-1.80;78.77
38852;BME280;24605;50.092;9.182;2023-02-28T08:10:33;98922.09;;;-1.76;77.94
38852;BME280;24605;50.092;9.182;2023-02-28T08:12:59;98935.16;;;-1.62;78.30
38852;BME280;24605;50.092;9.182;2023-02-28T08:15:26;98920.44;;;-1.58;76.80
38852;BME280;24605;50.092;9.182;2023-02-28T08:17:53;98933.34;;;-1.39;77.88
38852;BME280;24605;50.092;9.182;2023-02-28T08:20:21;98909.97;;;-1.53;76.94
38852;BME280;24605;50.092;9.182;2023-02-28T08:22:47;98940.47;;;-1.27;76.71
38852;BME280;24605;50.092;9.182;2023-02-28T08:25:15;98938.41;;;-1.18;74.88
38852;BME280;24605;50.092;9.182;2023-02-28T08:27:42;98945.78;;;-1.11;74.40
38852;BME280;24605;50.092;9.182;2023-02-28T08:30:10;98939.03;;;-1.13;74.72
38852;BME280;24605;50.092;9.182;2023-02-28T08:32:37;98937.75;;;-1.04;74.38
38852;BME280;24605;50.092;9.182;2023-02-28T08:35:04;98945.34;;;-1.01;74.27
38852;BME280;24605;50.092;9.182;2023-02-28T08:37:31;98936.88;;;-0.84;73.93
38852;BME280;24605;50.092;9.182;2023-02-28T08:39:58;98948.38;;;-0.74;74.07
38852;BME280;24605;50.092;9.182;2023-02-28T08:42:25;98925.16;;;-0.72;73.07
38852;BME280;24605;50.092;9.182;2023-02-28T08:44:52;98943.41;;;-0.59;72.92
38852;BME280;24605;50.092;9.182;2023-02-28T08:47:19;98944.09;;;-0.56;72.50
38852;BME280;24605;50.092;9.182;2023-02-28T08:49:45;98941.88;;;-0.64;72.25
38852;BME280;24605;50.092;9.182;2023-02-28T08:52:12;98947.19;;;-0.67;71.91
38852;BME280;24605;50.092;9.182;2023-02-28T08:54:39;98894.00;;;-0.85;71.28
38852;BME280;24605;50.092;9.182;2023-02-28T08:57:06;98949.38;;;-0.59;71.48
38852;BME280;24605;50.092;9.182;2023-02-28T08:59:34;98935.38;;;-0.53;69.72
38852;BME280;24605;50.092;9.182;2023-02-28T09:02:01;98946.28;;;-0.48;70.16
38852;BME280;24605;50.092;9.182;2023-02-28T09:04:28;98949.88;;;-0.33;70.02
38852;BME280;24605;50.092;9.182;2023-02-28T09:06:56;98933.72;;;-0.37;70.05
38852;BME280;24605;50.092;9.182;2023-02-28T09:09:22;98941.63;;;-0.22;69.34
38852;BME280;24605;50.092;9.182;2023-02-28T09:11:49;98929.66;;;-0.23;69.00
38852;BME280;24605;50.092;9.182;2023-02-28T09:14:15;98936.00;;;-0.13;69.10
38852;BME280;24605;50.092;9.182;2023-02-28T09:16:44;98928.75;;;-0.22;66.94
38852;BME280;24605;50.092;9.182;2023-02-28T09:19:11;98934.59;;;-0.19;67.34
38852;BME280;24605;50.092;9.182;2023-02-28T09:21:37;98916.69;;;-0.39;67.64
38852;BME280;24605;50.092;9.182;2023-02-28T09:24:04;98935.72;;;-0.07;68.18
38852;BME280;24605;50.092;9.182;2023-02-28T09:26:31;98928.66;;;-0.38;67.91
38852;BME280;24605;50.092;9.182;2023-02-28T09:28:57;98941.22;;;-0.32;68.15
38852;BME280;24605;50.092;9.182;2023-02-28T09:31:27;98940.25;;;-0.12;67.26
38852;BME280;24605;50.092;9.182;2023-02-28T09:33:57;98923.34;;;-0.18;66.64
38852;BME280;24605;50.092;9.182;2023-02-28T09:36:26;98927.31;;;-0.28;67.40
38852;BME280;24605;50.092;9.182;2023-02-28T09:38:53;98937.00;;;-0.16;66.44
38852;BME280;24605;50.092;9.182;2023-02-28T09:41:22;98924.09;;;0.02;65.82
38852;BME280;24605;50.092;9.182;2023-02-28T09:43:52;98932.72;;;0.01;64.25
38852;BME280;24605;50.092;9.182;2023-02-28T09:46:32;98923.28;;;0.02;64.87
38852;BME280;24605;50.092;9.182;2023-02-28T09:49:04;98932.88;;;0.15;63.67
38852;BME280;24605;50.092;9.182;2023-02-28T09:51:46;98935.97;;;0.22;63.13
38852;BME280;24605;50.092;9.182;2023-02-28T09:54:17;98931.59;;;0.07;62.45
38852;BME280;24605;50.092;9.182;2023-02-28T09:56:45;98933.66;;;0.18;61.78
38852;BME280;24605;50.092;9.182;2023-02-28T09:59:25;98937.59;;;0.07;61.92
38852;BME280;24605;50.092;9.182;2023-02-28T10:02:01;98938.59;;;0.38;61.96
38852;BME280;24605;50.092;9.182;2023-02-28T10:04:42;98937.72;;;0.55;61.40
38852;BME280;24605;50.092;9.182;2023-02-28T10:07:19;98943.59;;;0.57;61.41
38852;BME280;24605;50.092;9.182;2023-02-28T10:09:52;98941.34;;;0.51;62.10
38852;BME280;24605;50.092;9.182;2023-02-28T10:12:19;98945.28;;;0.58;61.73
38852;BME280;24605;50.092;9.182;2023-02-28T10:14:49;98947.66;;;0.79;61.82
38852;BME280;24605;50.092;9.182;2023-02-28T10:17:19;98942.56;;;0.77;61.66
38852;BME280;24605;50.092;9.182;2023-02-28T10:19:57;98947.81;;;0.76;60.39
38852;BME280;24605;50.092;9.182;2023-02-28T10:22:28;98951.22;;;0.76;60.89
38852;BME280;24605;50.092;9.182;2023-02-28T10:24:58;98939.22;;;0.59;60.90
38852;BME280;24605;50.092;9.182;2023-02-28T10:27:30;98947.06;;;0.90;61.14
38852;BME280;24605;50.092;9.182;2023-02-28T10:30:00;98942.47;;;1.27;61.29
38852;BME280;24605;50.092;9.182;2023-02-28T10:32:28;98941.28;;;1.49;59.67
38852;BME280;24605;50.092;9.182;2023-02-28T10:35:00;98943.09;;;1.63;58.29
38852;BME280;24605;50.092;9.182;2023-02-28T10:37:27;98935.31;;;1.93;56.91
38852;BME280;24605;50.092;9.182;2023-02-28T10:39:54;98943.66;;;2.13;56.43
38852;BME280;24605;50.092;9.182;2023-02-28T10:42:23;98943.03;;;2.24;55.86
38852;BME280;24605;50.092;9.182;2023-02-28T10:45:13;98937.09;;;2.07;55.06
38852;BME280;24605;50.092;9.182;2023-02-28T10:47:51;98910.28;;;1.94;54.96
38852;BME280;24605;50.092;9.182;2023-02-28T10:50:42;98936.97;;;1.94;55.07
38852;BME280;24605;50.092;9.182;2023-02-28T10:53:28;98935.22;;;1.95;54.37
38852;BME280;24605;50.092;9.182;2023-02-28T10:55:59;98939.69;;;1.77;56.06
38852;BME280;24605;50.092;9.182;2023-02-28T10:58:27;98936.94;;;1.80;55.76
38852;BME280;24605;50.092;9.182;2023-02-28T11:00:54;98940.44;;;1.79;55.90
38852;BME280;24605;50.092;9.182;2023-02-28T11:03:29;98939.09;;;1.87;55.18
38852;BME280;24605;50.092;9.182;2023-02-28T11:05:58;98937.66;;;1.67;54.68
38852;BME280;24605;50.092;9.182;2023-02-28T11:08:24;98930.09;;;1.79;55.37
38852;BME280;24605;50.092;9.182;2023-02-28T11:10:55;98932.03;;;1.75;54.99
38852;BME280;24605;50.092;9.182;2023-02-28T11:13:27;98918.69;;;1.83;55.02
38852;BME280;24605;50.092;9.182;2023-02-28T11:15:57;98890.03;;;1.86;54.58
38852;BME280;24605;50.092;9.182;2023-02-28T11:18:29;98932.97;;;2.19;53.65
38852;BME280;24605;50.092;9.182;2023-02-28T11:20:59;98930.44;;;1.88;53.76
38852;BME280;24605;50.092;9.182;2023-02-28T11:23:29;98923.06;;;2.11;54.60
38852;BME280;24605;50.092;9.182;2023-02-28T11:25:59;98932.38;;;1.99;53.76
38852;BME280;24605;50.092;9.182;2023-02-28T11:28:28;98932.38;;;1.99;53.90
38852;BME280;24605;50.092;9.182;2023-02-28T11:31:05;98928.59;;;2.19;54.24
38852;BME280;24605;50.092;9.182;2023-02-28T11:33:37;98916.06;;;2.42;53.85
38852;BME280;24605;50.092;9.182;2023-02-28T11:36:11;98872.53;;;1.91;53.21
38852;BME280;24605;50.092;9.182;2023-02-28T11:38:38;98924.06;;;2.23;54.79
38852;BME280;24605;50.092;9.182;2023-02-28T11:41:16;98923.91;;;2.55;53.99
38852;BME280;24605;50.092;9.182;2023-02-28T11:43:57;98925.03;;;2.37;53.45
38852;BME280;24605;50.092;9.182;2023-02-28T11:46:32;98924.28;;;2.20;54.35
38852;BME280;24605;50.092;9.182;2023-02-28T11:49:14;98924.09;;;2.38;53.84
38852;BME280;24605;50.092;9.182;2023-02-28T11:51:48;98918.81;;;2.39;54.47
38852;BME280;24605;50.092;9.182;2023-02-28T11:54:34;98918.16;;;2.21;53.47
38852;BME280;24605;50.092;9.182;2023-02-28T11:57:14;98911.06;;;2.25;54.55
38852;BME280;24605;50.092;9.182;2023-02-28T11:59:53;98904.22;;;2.24;55.31
38852;BME280;24605;50.092;9.182;2023-02-28T12:02:26;98898.09;;;1.96;53.06
38852;BME280;24605;50.092;9.182;2023-02-28T12:05:10;98912.97;;;2.07;53.37
38852;BME280;24605;50.092;9.182;2023-02-28T12:07:50;98916.91;;;2.28;54.58
38852;BME280;24605;50.092;9.182;2023-02-28T12:10:22;98918.34;;;2.47;53.59
38852;BME280;24605;50.092;9.182;2023-02-28T12:12:59;98913.56;;;2.26;53.30
38852;BME280;24605;50.092;9.182;2023-02-28T12:15:41;98912.25;;;2.19;53.92
38852;BME280;24605;50.092;9.182;2023-02-28T12:18:36;98910.50;;;2.19;53.87
38852;BME280;24605;50.092;9.182;2023-02-28T12:21:11;98908.00;;;2.47;53.36
38852;BME280;24605;50.092;9.182;2023-02-28T12:23:52;98912.41;;;2.74;53.91
38852;BME280;24605;50.092;9.182;2023-02-28T12:26:30;98907.13;;;3.17;53.40
38852;BME280;24605;50.092;9.182;2023-02-28T12:29:02;98899.69;;;2.98;51.96
38852;BME280;24605;50.092;9.182;2023-02-28T12:31:35;98905.59;;;3.27;53.03
38852;BME280;24605;50.092;9.182;2023-02-28T12:34:04;98892.25;;;3.06;52.33
38852;BME280;24605;50.092;9.182;2023-02-28T12:36:35;98898.53;;;2.75;51.78
38852;BME280;24605;50.092;9.182;2023-02-28T12:39:08;98909.09;;;2.72;52.24
38852;BME280;24605;50.092;9.182;2023-02-28T12:41:40;98900.38;;;2.87;51.54
38852;BME280;24605;50.092;9.182;2023-02-28T12:44:11;98908.88;;;2.75;51.69
38852;BME280;24605;50.092;9.182;2023-02-28T12:46:41;98907.03;;;2.77;51.86
38852;BME280;24605;50.092;9.182;2023-02-28T12:49:13;98900.34;;;2.60;53.09
38852;BME280;24605;50.092;9.182;2023-02-28T12:51:43;98897.91;;;2.71;52.47
38852;BME280;24605;50.092;9.182;2023-02-28T12:54:19;98890.34;;;2.54;52.48
38852;BME280;24605;50.092;9.182;2023-02-28T12:56:54;98870.47;;;2.54;52.31
38852;BME280;24605;50.092;9.182;2023-02-28T12:59:25;98892.53;;;3.02;51.98
38852;BME280;24605;50.092;9.182;2023-02-28T13:02:02;98885.47;;;3.18;51.86
38852;BME280;24605;50.092;9.182;2023-02-28T13:04:57;98890.03;;;3.27;51.34
38852;BME280;24605;50.092;9.182;2023-02-28T13:07:56;98892.53;;;3.16;51.87
38852;BME280;24605;50.092;9.182;2023-02-28T13:10:38;98888.44;;;3.39;51.49
38852;BME280;24605;50.092;9.182;2023-02-28T13:13:05;98881.75;;;3.22;52.18
38852;BME280;24605;50.092;9.182;2023-02-28T13:15:32;98885.00;;;3.39;51.49
38852;BME280;24605;50.092;9.182;2023-02-28T13:18:03;98880.69;;;3.52;51.29
38852;BME280;24605;50.092;9.182;2023-02-28T13:20:34;98873.13;;;3.62;51.98